sensor_id;sensor_type;location;lat;lon;timestamp;pressure;altitude;pressure_sealevel;temperature;humidity
61528;BME280;47395;42.032;-8.634;2023-11-19T00:01:20;76185.75;;;-148.63;42.68
61528;BME280;47395;42.032;-8.634;2023-11-19T00:03:22;76175.75;;;-148.63;42.71
61528;BME280;47395;42.032;-8.634;2023-11-19T00:05:23;76173.75;;;-148.63;42.72
61528;BME280;47395;42.032;-8.634;2023-11-19T00:07:26;76153.75;;;-148.63;42.65
61528;BME280;47395;42.032;-8.634;2023-11-19T00:09:26;76159.75;;;-148.63;42.74
61528;BME280;47395;42.032;-8.634;2023-11-19T00:11:29;76141.72;;;-148.63;42.60
61528;BME280;47395;42.032;-8.634;2023-11-19T00:13:30;76149.72;;;-148.63;42.62
61528;BME280;47395;42.032;-8.634;2023-11-19T00:15:31;76175.75;;;-148.63;42.59
61528;BME280;47395;42.032;-8.634;2023-11-19T00:17:31;76237.78;;;-148.63;43.36
61528;BME280;47395;42.032;-8.634;2023-11-19T00:19:33;76191.75;;;-148.63;42.88
61528;BME280;47395;42.032;-8.634;2023-11-19T00:21:34;76161.75;;;-148.63;42.66
61528;BME280;47395;42.032;-8.634;2023-11-19T00:23:37;76129.72;;;-148.63;42.21
61528;BME280;47395;42.032;-8.634;2023-11-19T00:25:37;76185.75;;;-148.63;42.20
61528;BME280;47395;42.032;-8.634;2023-11-19T00:27:42;76149.72;;;-148.63;42.32
61528;BME280;47395;42.032;-8.634;2023-11-19T00:29:47;76151.75;;;-148.63;42.36
61528;BME280;47395;42.032;-8.634;2023-11-19T00:31:48;76167.75;;;-148.63;42.30
61528;BME280;47395;42.032;-8.634;2023-11-19T00:33:48;76169.75;;;-148.63;42.37
61528;BME280;47395;42.032;-8.634;2023-11-19T00:35:49;76191.75;;;-148.63;42.68
61528;BME280;47395;42.032;-8.634;2023-11-19T00:37:51;76249.78;;;-148.63;43.00
61528;BME280;47395;42.032;-8.634;2023-11-19T00:39:55;76251.78;;;-148.63;43.55
61528;BME280;47395;42.032;-8.634;2023-11-19T00:41:57;76265.78;;;-148.63;43.68
61528;BME280;47395;42.032;-8.634;2023-11-19T00:43:57;76175.75;;;-148.63;43.03
61528;BME280;47395;42.032;-8.634;2023-11-19T00:45:58;76159.75;;;-148.63;42.63
61528;BME280;47395;42.032;-8.634;2023-11-19T00:47:59;76145.72;;;-148.63;42.74
61528;BME280;47395;42.032;-8.634;2023-11-19T00:50:03;76213.75;;;-148.63;43.03
61528;BME280;47395;42.032;-8.634;2023-11-19T00:52:04;76321.81;;;-148.63;44.50
61528;BME280;47395;42.032;-8.634;2023-11-19T00:54:05;76231.78;;;-148.63;43.34
61528;BME280;47395;42.032;-8.634;2023-11-19T00:56:07;76185.75;;;-148.63;43.03
61528;BME280;47395;42.032;-8.634;2023-11-19T00:58:09;76235.78;;;-148.63;42.91
61528;BME280;47395;42.032;-8.634;2023-11-19T01:00:10;76195.75;;;-148.63;43.21
61528;BME280;47395;42.032;-8.634;2023-11-19T01:02:18;76157.75;;;-148.63;42.75
61528;BME280;47395;42.032;-8.634;2023-11-19T01:04:20;76145.72;;;-148.63;42.71
61528;BME280;47395;42.032;-8.634;2023-11-19T01:06:31;76141.72;;;-148.63;42.65
61528;BME280;47395;42.032;-8.634;2023-11-19T01:08:32;76137.72;;;-148.63;42.41
61528;BME280;47395;42.032;-8.634;2023-11-19T01:10:33;76147.72;;;-148.63;42.51
61528;BME280;47395;42.032;-8.634;2023-11-19T01:12:34;76141.72;;;-148.63;42.45
61528;BME280;47395;42.032;-8.634;2023-11-19T01:14:36;76123.72;;;-148.63;42.43
61528;BME280;47395;42.032;-8.634;2023-11-19T01:16:38;76105.72;;;-148.63;41.94
61528;BME280;47395;42.032;-8.634;2023-11-19T01:18:39;76101.72;;;-148.63;42.20
61528;BME280;47395;42.032;-8.634;2023-11-19T01:20:40;76097.72;;;-148.63;41.97
61528;BME280;47395;42.032;-8.634;2023-11-19T01:22:41;76093.72;;;-148.63;41.86
61528;BME280;47395;42.032;-8.634;2023-11-19T01:24:42;76091.72;;;-148.63;41.80
61528;BME280;47395;42.032;-8.634;2023-11-19T01:26:43;76109.72;;;-148.63;42.16
61528;BME280;47395;42.032;-8.634;2023-11-19T01:28:47;76141.72;;;-148.63;42.51
61528;BME280;47395;42.032;-8.634;2023-11-19T01:30:51;76133.72;;;-148.63;42.37
61528;BME280;47395;42.032;-8.634;2023-11-19T01:32:52;76135.72;;;-148.63;42.57
61528;BME280;47395;42.032;-8.634;2023-11-19T01:34:59;76181.75;;;-148.63;42.83
61528;BME280;47395;42.032;-8.634;2023-11-19T01:37:01;76199.75;;;-148.63;43.06
61528;BME280;47395;42.032;-8.634;2023-11-19T01:39:02;76159.75;;;-148.63;43.02
61528;BME280;47395;42.032;-8.634;2023-11-19T01:41:05;76147.72;;;-148.63;42.94
61528;BME280;47395;42.032;-8.634;2023-11-19T01:43:06;76107.72;;;-148.63;42.63
61528;BME280;47395;42.032;-8.634;2023-11-19T01:45:07;76103.72;;;-148.63;42.60
61528;BME280;47395;42.032;-8.634;2023-11-19T01:47:09;76101.72;;;-148.63;42.63
61528;BME280;47395;42.032;-8.634;2023-11-19T01:49:11;76109.72;;;-148.63;42.81
61528;BME280;47395;42.032;-8.634;2023-11-19T01:51:15;76119.72;;;-148.63;42.79
61528;BME280;47395;42.032;-8.634;2023-11-19T01:53:17;76085.72;;;-148.63;42.58
61528;BME280;47395;42.032;-8.634;2023-11-19T01:55:20;76113.72;;;-148.63;42.26
61528;BME280;47395;42.032;-8.634;2023-11-19T01:57:22;76077.69;;;-148.63;42.49
61528;BME280;47395;42.032;-8.634;2023-11-19T01:59:24;76069.69;;;-148.63;42.37
61528;BME280;47395;42.032;-8.634;2023-11-19T02:01:28;76161.75;;;-148.63;43.06
61528;BME280;47395;42.032;-8.634;2023-11-19T02:03:31;76159.75;;;-148.63;43.27
61528;BME280;47395;42.032;-8.634;2023-11-19T02:05:33;76183.75;;;-148.63;43.55
61528;BME280;47395;42.032;-8.634;2023-11-19T02:07:35;76171.75;;;-148.63;43.47
61528;BME280;47395;42.032;-8.634;2023-11-19T02:09:36;76157.75;;;-148.63;43.50
61528;BME280;47395;42.032;-8.634;2023-11-19T02:11:40;76151.75;;;-148.63;43.21
61528;BME280;47395;42.032;-8.634;2023-11-19T02:13:42;76191.75;;;-148.63;43.77
61528;BME280;47395;42.032;-8.634;2023-11-19T02:15:45;76189.75;;;-148.63;44.09
61528;BME280;47395;42.032;-8.634;2023-11-19T02:17:47;76181.75;;;-148.63;43.89
61528;BME280;47395;42.032;-8.634;2023-11-19T02:19:48;76189.75;;;-148.63;44.09
61528;BME280;47395;42.032;-8.634;2023-11-19T02:21:49;76243.78;;;-148.63;44.15
61528;BME280;47395;42.032;-8.634;2023-11-19T02:23:50;76137.72;;;-148.63;43.26
61528;BME280;47395;42.032;-8.634;2023-11-19T02:28:46;76169.75;;;-148.63;43.30
61528;BME280;47395;42.032;-8.634;2023-11-19T02:30:47;76209.75;;;-148.63;44.05
61528;BME280;47395;42.032;-8.634;2023-11-19T02:32:48;76147.72;;;-148.63;43.03
61528;BME280;47395;42.032;-8.634;2023-11-19T02:34:49;76163.75;;;-148.63;43.43
61528;BME280;47395;42.032;-8.634;2023-11-19T02:36:49;76197.75;;;-148.63;43.72
61528;BME280;47395;42.032;-8.634;2023-11-19T02:38:50;76213.75;;;-148.63;44.07
61528;BME280;47395;42.032;-8.634;2023-11-19T02:40:51;76247.78;;;-148.63;44.31
61528;BME280;47395;42.032;-8.634;2023-11-19T02:42:53;76197.75;;;-148.63;43.90
61528;BME280;47395;42.032;-8.634;2023-11-19T02:44:56;76151.75;;;-148.63;43.41
61528;BME280;47395;42.032;-8.634;2023-11-19T02:46:56;76141.72;;;-148.63;43.10
61528;BME280;47395;42.032;-8.634;2023-11-19T02:49:02;76149.72;;;-148.63;43.15
61528;BME280;47395;42.032;-8.634;2023-11-19T02:51:03;76269.78;;;-148.63;44.25
61528;BME280;47395;42.032;-8.634;2023-11-19T02:53:04;76137.72;;;-148.63;43.33
61528;BME280;47395;42.032;-8.634;2023-11-19T02:55:07;76093.72;;;-148.63;42.72
61528;BME280;47395;42.032;-8.634;2023-11-19T02:57:13;76133.72;;;-148.63;42.74
61528;BME280;47395;42.032;-8.634;2023-11-19T02:59:14;76117.72;;;-148.63;43.00
61528;BME280;47395;42.032;-8.634;2023-11-19T03:01:27;76113.72;;;-148.63;42.57
61528;BME280;47395;42.032;-8.634;2023-11-19T03:03:32;76133.72;;;-148.63;42.79
61528;BME280;47395;42.032;-8.634;2023-11-19T03:05:39;76113.72;;;-148.63;42.54
61528;BME280;47395;42.032;-8.634;2023-11-19T03:07:42;76129.72;;;-148.63;42.70
61528;BME280;47395;42.032;-8.634;2023-11-19T03:09:44;76097.72;;;-148.63;42.35
61528;BME280;47395;42.032;-8.634;2023-11-19T03:11:45;76091.72;;;-148.63;42.15
61528;BME280;47395;42.032;-8.634;2023-11-19T03:13:46;76095.72;;;-148.63;42.27
61528;BME280;47395;42.032;-8.634;2023-11-19T03:15:47;76105.72;;;-148.63;42.37
61528;BME280;47395;42.032;-8.634;2023-11-19T03:17:48;76129.72;;;-148.63;42.88
61528;BME280;47395;42.032;-8.634;2023-11-19T03:19:50;76165.75;;;-148.63;42.96
61528;BME280;47395;42.032;-8.634;2023-11-19T03:21:51;76095.72;;;-148.63;42.56
61528;BME280;47395;42.032;-8.634;2023-11-19T03:23:52;76081.69;;;-148.63;42.47
61528;BME280;47395;42.032;-8.634;2023-11-19T03:25:53;76079.69;;;-148.63;42.37
61528;BME280;47395;42.032;-8.634;2023-11-19T03:27:56;76117.72;;;-148.63;42.82
61528;BME280;47395;42.032;-8.634;2023-11-19T03:29:59;76095.72;;;-148.63;42.60
61528;BME280;47395;42.032;-8.634;2023-11-19T03:32:02;76123.72;;;-148.63;42.92
61528;BME280;47395;42.032;-8.634;2023-11-19T03:34:04;76065.69;;;-148.63;42.36
61528;BME280;47395;42.032;-8.634;2023-11-19T03:36:06;76069.69;;;-148.63;42.61
61528;BME280;47395;42.032;-8.634;2023-11-19T03:38:08;76043.69;;;-148.63;42.24
61528;BME280;47395;42.032;-8.634;2023-11-19T03:40:09;76033.69;;;-148.63;42.16
61528;BME280;47395;42.032;-8.634;2023-11-19T03:42:11;76031.69;;;-148.63;42.06
61528;BME280;47395;42.032;-8.634;2023-11-19T03:44:13;76027.69;;;-148.63;41.84
61528;BME280;47395;42.032;-8.634;2023-11-19T03:46:20;76035.69;;;-148.63;42.02
61528;BME280;47395;42.032;-8.634;2023-11-19T03:48:23;76031.69;;;-148.63;41.87
61528;BME280;47395;42.032;-8.634;2023-11-19T03:50:24;76025.69;;;-148.63;41.78
61528;BME280;47395;42.032;-8.634;2023-11-19T03:52:26;76037.69;;;-148.63;41.69
61528;BME280;47395;42.032;-8.634;2023-11-19T03:54:30;76057.69;;;-148.63;41.93
61528;BME280;47395;42.032;-8.634;2023-11-19T03:56:30;76043.69;;;-148.63;41.97
61528;BME280;47395;42.032;-8.634;2023-11-19T03:58:31;76033.69;;;-148.63;42.00
61528;BME280;47395;42.032;-8.634;2023-11-19T04:00:34;76029.69;;;-148.63;41.70
61528;BME280;47395;42.032;-8.634;2023-11-19T04:02:35;76033.69;;;-148.63;42.00
61528;BME280;47395;42.032;-8.634;2023-11-19T04:04:36;76033.69;;;-148.63;41.84
61528;BME280;47395;42.032;-8.634;2023-11-19T04:06:38;76045.69;;;-148.63;42.13
61528;BME280;47395;42.032;-8.634;2023-11-19T04:08:40;76077.69;;;-148.63;42.07
61528;BME280;47395;42.032;-8.634;2023-11-19T04:10:42;76067.69;;;-148.63;42.60
61528;BME280;47395;42.032;-8.634;2023-11-19T04:12:42;76063.69;;;-148.63;42.43
61528;BME280;47395;42.032;-8.634;2023-11-19T04:14:43;76099.72;;;-148.63;42.92
61528;BME280;47395;42.032;-8.634;2023-11-19T04:16:45;76089.72;;;-148.63;42.79
61528;BME280;47395;42.032;-8.634;2023-11-19T04:18:45;76107.72;;;-148.63;43.19
61528;BME280;47395;42.032;-8.634;2023-11-19T04:20:46;76105.72;;;-148.63;43.41
61528;BME280;47395;42.032;-8.634;2023-11-19T04:22:49;76091.72;;;-148.63;42.88
61528;BME280;47395;42.032;-8.634;2023-11-19T04:24:52;76043.69;;;-148.63;42.54
61528;BME280;47395;42.032;-8.634;2023-11-19T04:26:52;76121.72;;;-148.63;42.63
61528;BME280;47395;42.032;-8.634;2023-11-19T04:28:53;76097.72;;;-148.63;42.82
61528;BME280;47395;42.032;-8.634;2023-11-19T04:30:54;76083.72;;;-148.63;42.67
61528;BME280;47395;42.032;-8.634;2023-11-19T04:32:56;76085.72;;;-148.63;42.65
61528;BME280;47395;42.032;-8.634;2023-11-19T04:34:57;76091.72;;;-148.63;42.68
61528;BME280;47395;42.032;-8.634;2023-11-19T04:36:58;76059.69;;;-148.63;42.44
61528;BME280;47395;42.032;-8.634;2023-11-19T04:39:04;76085.72;;;-148.63;42.48
61528;BME280;47395;42.032;-8.634;2023-11-19T04:41:16;76083.72;;;-148.63;42.36
61528;BME280;47395;42.032;-8.634;2023-11-19T04:43:17;76083.72;;;-148.63;42.36
61528;BME280;47395;42.032;-8.634;2023-11-19T04:45:20;76081.69;;;-148.63;42.41
61528;BME280;47395;42.032;-8.634;2023-11-19T04:47:21;76093.72;;;-148.63;42.32
61528;BME280;47395;42.032;-8.634;2023-11-19T04:49:21;76133.72;;;-148.63;42.79
61528;BME280;47395;42.032;-8.634;2023-11-19T04:51:22;76211.75;;;-148.63;43.70
61528;BME280;47395;42.032;-8.634;2023-11-19T04:53:23;76129.72;;;-148.63;42.86
61528;BME280;47395;42.032;-8.634;2023-11-19T04:55:26;76085.72;;;-148.63;42.41
61528;BME280;47395;42.032;-8.634;2023-11-19T04:57:26;76085.72;;;-148.63;42.33
61528;BME280;47395;42.032;-8.634;2023-11-19T04:59:27;76073.69;;;-148.63;42.35
61528;BME280;47395;42.032;-8.634;2023-11-19T05:05:56;76035.69;;;-148.63;41.97
61528;BME280;47395;42.032;-8.634;2023-11-19T05:07:57;76023.69;;;-148.63;41.78
61528;BME280;47395;42.032;-8.634;2023-11-19T05:09:58;76035.69;;;-148.63;41.69
61528;BME280;47395;42.032;-8.634;2023-11-19T05:11:58;76173.75;;;-148.63;42.99
61528;BME280;47395;42.032;-8.634;2023-11-19T05:13:59;76139.72;;;-148.63;43.11
61528;BME280;47395;42.032;-8.634;2023-11-19T05:16:00;76181.75;;;-148.63;43.86
61528;BME280;47395;42.032;-8.634;2023-11-19T05:18:01;76199.75;;;-148.63;43.87
61528;BME280;47395;42.032;-8.634;2023-11-19T05:20:02;76183.75;;;-148.63;43.79
61528;BME280;47395;42.032;-8.634;2023-11-19T05:22:03;76105.72;;;-148.63;43.07
61528;BME280;47395;42.032;-8.634;2023-11-19T05:24:04;76089.72;;;-148.63;42.98
61528;BME280;47395;42.032;-8.634;2023-11-19T05:26:07;76149.72;;;-148.63;43.71
61528;BME280;47395;42.032;-8.634;2023-11-19T05:28:08;76109.72;;;-148.63;43.36
61528;BME280;47395;42.032;-8.634;2023-11-19T05:30:09;76179.75;;;-148.63;44.26
61528;BME280;47395;42.032;-8.634;2023-11-19T05:32:11;76151.75;;;-148.63;43.64
61528;BME280;47395;42.032;-8.634;2023-11-19T05:34:11;76103.72;;;-148.63;42.80
61528;BME280;47395;42.032;-8.634;2023-11-19T05:36:12;76101.72;;;-148.63;42.38
61528;BME280;47395;42.032;-8.634;2023-11-19T05:38:13;76189.75;;;-148.63;44.01
61528;BME280;47395;42.032;-8.634;2023-11-19T05:40:14;76109.72;;;-148.63;43.44
61528;BME280;47395;42.032;-8.634;2023-11-19T05:42:15;76133.72;;;-148.63;44.18
61528;BME280;47395;42.032;-8.634;2023-11-19T05:44:17;76069.69;;;-148.63;43.41
61528;BME280;47395;42.032;-8.634;2023-11-19T05:46:18;76181.75;;;-148.63;44.32
61528;BME280;47395;42.032;-8.634;2023-11-19T05:48:19;76103.72;;;-148.63;43.55
61528;BME280;47395;42.032;-8.634;2023-11-19T05:50:20;76113.72;;;-148.63;43.77
61528;BME280;47395;42.032;-8.634;2023-11-19T05:52:20;76111.72;;;-148.63;43.63
61528;BME280;47395;42.032;-8.634;2023-11-19T05:54:23;76129.72;;;-148.63;44.01
61528;BME280;47395;42.032;-8.634;2023-11-19T05:56:23;76221.78;;;-148.63;44.75
61528;BME280;47395;42.032;-8.634;2023-11-19T05:58:26;76151.75;;;-148.63;44.21
61528;BME280;47395;42.032;-8.634;2023-11-19T06:00:29;76213.75;;;-148.63;45.00
61528;BME280;47395;42.032;-8.634;2023-11-19T06:02:32;76161.75;;;-148.63;44.42
61528;BME280;47395;42.032;-8.634;2023-11-19T06:04:33;76073.69;;;-148.63;43.00
61528;BME280;47395;42.032;-8.634;2023-11-19T06:06:34;76065.69;;;-148.63;43.03
61528;BME280;47395;42.032;-8.634;2023-11-19T06:08:34;76079.69;;;-148.63;43.09
61528;BME280;47395;42.032;-8.634;2023-11-19T06:10:35;76099.72;;;-148.63;43.53
61528;BME280;47395;42.032;-8.634;2023-11-19T06:12:36;76109.72;;;-148.63;43.65
61528;BME280;47395;42.032;-8.634;2023-11-19T06:14:38;76091.72;;;-148.63;43.28
61528;BME280;47395;42.032;-8.634;2023-11-19T06:16:40;76079.69;;;-148.63;43.15
61528;BME280;47395;42.032;-8.634;2023-11-19T06:18:41;76069.69;;;-148.63;42.95
61528;BME280;47395;42.032;-8.634;2023-11-19T06:20:43;76081.69;;;-148.63;43.22
61528;BME280;47395;42.032;-8.634;2023-11-19T06:22:44;76121.72;;;-148.63;43.48
61528;BME280;47395;42.032;-8.634;2023-11-19T06:24:46;76085.72;;;-148.63;43.27
61528;BME280;47395;42.032;-8.634;2023-11-19T06:26:47;76105.72;;;-148.63;43.25
61528;BME280;47395;42.032;-8.634;2023-11-19T06:28:48;76117.72;;;-148.63;43.71
61528;BME280;47395;42.032;-8.634;2023-11-19T06:30:49;76219.75;;;-148.63;44.31
61528;BME280;47395;42.032;-8.634;2023-11-19T06:32:49;76177.75;;;-148.63;43.79
61528;BME280;47395;42.032;-8.634;2023-11-19T06:34:50;76121.72;;;-148.63;43.15
61528;BME280;47395;42.032;-8.634;2023-11-19T06:36:51;76099.72;;;-148.63;42.84
61528;BME280;47395;42.032;-8.634;2023-11-19T06:38:53;76177.75;;;-148.63;43.19
61528;BME280;47395;42.032;-8.634;2023-11-19T06:40:54;76117.72;;;-148.63;42.81
61528;BME280;47395;42.032;-8.634;2023-11-19T06:42:54;76109.72;;;-148.63;42.78
61528;BME280;47395;42.032;-8.634;2023-11-19T06:44:55;76087.72;;;-148.63;42.48
61528;BME280;47395;42.032;-8.634;2023-11-19T06:46:57;76163.75;;;-148.63;43.28
61528;BME280;47395;42.032;-8.634;2023-11-19T06:48:58;76165.75;;;-148.63;43.28
61528;BME280;47395;42.032;-8.634;2023-11-19T06:50:59;76207.75;;;-148.63;43.58
61528;BME280;47395;42.032;-8.634;2023-11-19T06:53:00;76109.72;;;-148.63;42.71
61528;BME280;47395;42.032;-8.634;2023-11-19T06:55:01;76195.75;;;-148.63;43.16
61528;BME280;47395;42.032;-8.634;2023-11-19T06:57:02;76137.72;;;-148.63;43.03
61528;BME280;47395;42.032;-8.634;2023-11-19T06:59:03;76165.75;;;-148.63;44.07
61528;BME280;47395;42.032;-8.634;2023-11-19T07:01:06;76135.72;;;-148.63;43.55
61528;BME280;47395;42.032;-8.634;2023-11-19T07:03:08;76153.75;;;-148.63;44.65
61528;BME280;47395;42.032;-8.634;2023-11-19T07:05:10;76121.72;;;-148.63;43.66
61528;BME280;47395;42.032;-8.634;2023-11-19T07:07:12;76293.81;;;-148.63;45.48
61528;BME280;47395;42.032;-8.634;2023-11-19T07:09:15;76173.75;;;-148.63;44.67
61528;BME280;47395;42.032;-8.634;2023-11-19T07:11:16;76101.72;;;-148.63;43.52
61528;BME280;47395;42.032;-8.634;2023-11-19T07:13:17;76129.72;;;-148.63;43.30
61528;BME280;47395;42.032;-8.634;2023-11-19T07:15:18;76123.72;;;-148.63;42.75
61528;BME280;47395;42.032;-8.634;2023-11-19T07:17:19;76115.72;;;-148.63;42.70
61528;BME280;47395;42.032;-8.634;2023-11-19T07:19:20;76065.69;;;-148.63;42.25
61528;BME280;47395;42.032;-8.634;2023-11-19T07:21:21;76169.75;;;-148.63;43.29
61528;BME280;47395;42.032;-8.634;2023-11-19T07:23:23;76187.75;;;-148.63;43.93
61528;BME280;47395;42.032;-8.634;2023-11-19T07:25:23;76169.75;;;-148.63;43.55
61528;BME280;47395;42.032;-8.634;2023-11-19T07:27:24;76121.72;;;-148.63;43.30
61528;BME280;47395;42.032;-8.634;2023-11-19T07:29:25;76127.72;;;-148.63;43.50
61528;BME280;47395;42.032;-8.634;2023-11-19T07:31:26;76149.72;;;-148.63;43.49
61528;BME280;47395;42.032;-8.634;2023-11-19T07:33:28;76133.72;;;-148.63;43.47
61528;BME280;47395;42.032;-8.634;2023-11-19T07:35:29;76129.72;;;-148.63;42.97
61528;BME280;47395;42.032;-8.634;2023-11-19T07:37:33;76093.72;;;-148.63;42.55
61528;BME280;47395;42.032;-8.634;2023-11-19T07:39:34;76097.72;;;-148.63;42.55
61528;BME280;47395;42.032;-8.634;2023-11-19T07:41:35;76079.69;;;-148.63;42.60
61528;BME280;47395;42.032;-8.634;2023-11-19T07:43:40;76107.72;;;-148.63;42.73
61528;BME280;47395;42.032;-8.634;2023-11-19T07:45:42;76135.72;;;-148.63;42.88
61528;BME280;47395;42.032;-8.634;2023-11-19T07:47:45;76093.72;;;-148.63;42.30
61528;BME280;47395;42.032;-8.634;2023-11-19T07:49:46;76085.72;;;-148.63;42.16
61528;BME280;47395;42.032;-8.634;2023-11-19T07:51:47;76097.72;;;-148.63;42.35
61528;BME280;47395;42.032;-8.634;2023-11-19T07:53:47;76079.69;;;-148.63;42.23
61528;BME280;47395;42.032;-8.634;2023-11-19T07:55:48;76069.69;;;-148.63;42.03
61528;BME280;47395;42.032;-8.634;2023-11-19T07:57:49;76063.69;;;-148.63;41.93
61528;BME280;47395;42.032;-8.634;2023-11-19T07:59:49;76085.72;;;-148.63;42.10
61528;BME280;47395;42.032;-8.634;2023-11-19T08:01:50;76079.69;;;-148.63;42.02
61528;BME280;47395;42.032;-8.634;2023-11-19T08:03:51;76089.72;;;-148.63;42.01
61528;BME280;47395;42.032;-8.634;2023-11-19T08:05:52;76219.75;;;-148.63;43.38
61528;BME280;47395;42.032;-8.634;2023-11-19T08:07:55;76101.72;;;-148.63;42.08
61528;BME280;47395;42.032;-8.634;2023-11-19T08:09:56;76035.69;;;-148.63;41.70
61528;BME280;47395;42.032;-8.634;2023-11-19T08:11:57;76029.69;;;-148.63;41.23
61528;BME280;47395;42.032;-8.634;2023-11-19T08:13:58;76125.72;;;-148.63;41.72
61528;BME280;47395;42.032;-8.634;2023-11-19T08:15:59;76181.75;;;-148.63;42.72
61528;BME280;47395;42.032;-8.634;2023-11-19T08:17:59;76215.75;;;-148.63;43.28
61528;BME280;47395;42.032;-8.634;2023-11-19T08:20:00;76161.75;;;-148.63;42.70
61528;BME280;47395;42.032;-8.634;2023-11-19T08:22:01;76125.72;;;-148.63;42.18
61528;BME280;47395;42.032;-8.634;2023-11-19T08:24:03;76197.75;;;-148.63;42.95
61528;BME280;47395;42.032;-8.634;2023-11-19T08:26:05;76153.75;;;-148.63;42.68
61528;BME280;47395;42.032;-8.634;2023-11-19T08:28:06;76111.72;;;-148.63;42.27
61528;BME280;47395;42.032;-8.634;2023-11-19T08:30:07;76099.72;;;-148.63;42.05
61528;BME280;47395;42.032;-8.634;2023-11-19T08:32:08;76095.72;;;-148.63;41.94
61528;BME280;47395;42.032;-8.634;2023-11-19T08:34:09;76091.72;;;-148.63;41.98
61528;BME280;47395;42.032;-8.634;2023-11-19T08:36:15;76063.69;;;-148.63;41.66
61528;BME280;47395;42.032;-8.634;2023-11-19T08:38:16;76037.69;;;-148.63;41.51
61528;BME280;47395;42.032;-8.634;2023-11-19T08:40:17;76049.69;;;-148.63;41.42
61528;BME280;47395;42.032;-8.634;2023-11-19T08:42:18;76043.69;;;-148.63;41.28
61528;BME280;47395;42.032;-8.634;2023-11-19T08:44:18;76125.72;;;-148.63;42.07
61528;BME280;47395;42.032;-8.634;2023-11-19T08:46:20;76083.72;;;-148.63;41.65
61528;BME280;47395;42.032;-8.634;2023-11-19T08:48:20;76069.69;;;-148.63;41.55
61528;BME280;47395;42.032;-8.634;2023-11-19T08:50:21;76037.69;;;-148.63;41.34
61528;BME280;47395;42.032;-8.634;2023-11-19T08:52:22;76017.69;;;-148.63;41.19
61528;BME280;47395;42.032;-8.634;2023-11-19T08:54:23;76025.69;;;-148.63;40.87
61528;BME280;47395;42.032;-8.634;2023-11-19T08:56:24;76033.69;;;-148.63;40.96
61528;BME280;47395;42.032;-8.634;2023-11-19T08:58:24;76003.66;;;-148.63;41.03
61528;BME280;47395;42.032;-8.634;2023-11-19T09:00:25;76005.66;;;-148.63;40.48
61528;BME280;47395;42.032;-8.634;2023-11-19T09:02:26;75975.66;;;-148.63;40.63
61528;BME280;47395;42.032;-8.634;2023-11-19T09:04:27;75969.66;;;-148.63;40.47
61528;BME280;47395;42.032;-8.634;2023-11-19T09:06:27;75943.66;;;-148.63;40.36
61528;BME280;47395;42.032;-8.634;2023-11-19T09:08:28;75919.63;;;-148.63;40.25
61528;BME280;47395;42.032;-8.634;2023-11-19T09:10:29;75995.66;;;-148.63;40.99
61528;BME280;47395;42.032;-8.634;2023-11-19T09:12:30;75903.63;;;-148.63;40.24
61528;BME280;47395;42.032;-8.634;2023-11-19T09:14:31;75847.59;;;-148.63;39.60
61528;BME280;47395;42.032;-8.634;2023-11-19T09:16:31;75873.63;;;-148.63;39.62
61528;BME280;47395;42.032;-8.634;2023-11-19T09:18:32;75845.59;;;-148.63;39.18
61528;BME280;47395;42.032;-8.634;2023-11-19T09:20:33;75879.63;;;-148.63;39.75
61528;BME280;47395;42.032;-8.634;2023-11-19T09:22:38;75869.63;;;-148.63;39.52
61528;BME280;47395;42.032;-8.634;2023-11-19T09:24:39;75891.63;;;-148.63;39.70
61528;BME280;47395;42.032;-8.634;2023-11-19T09:26:40;75825.59;;;-148.63;39.52
61528;BME280;47395;42.032;-8.634;2023-11-19T09:28:42;75837.59;;;-148.63;39.06
61528;BME280;47395;42.032;-8.634;2023-11-19T09:30:42;75807.59;;;-148.63;38.83
61528;BME280;47395;42.032;-8.634;2023-11-19T09:32:43;75819.59;;;-148.63;38.88
61528;BME280;47395;42.032;-8.634;2023-11-19T09:34:44;75789.59;;;-148.63;38.96
61528;BME280;47395;42.032;-8.634;2023-11-19T09:36:47;75767.59;;;-148.63;38.58
61528;BME280;47395;42.032;-8.634;2023-11-19T09:38:48;75777.59;;;-148.63;38.47
61528;BME280;47395;42.032;-8.634;2023-11-19T09:40:48;75903.63;;;-148.63;39.54
61528;BME280;47395;42.032;-8.634;2023-11-19T09:42:49;75827.59;;;-148.63;39.22
61528;BME280;47395;42.032;-8.634;2023-11-19T09:44:51;75775.59;;;-148.63;38.59
61528;BME280;47395;42.032;-8.634;2023-11-19T09:46:52;75749.56;;;-148.63;38.48
61528;BME280;47395;42.032;-8.634;2023-11-19T09:48:53;75751.56;;;-148.63;38.63
61528;BME280;47395;42.032;-8.634;2023-11-19T09:50:57;75965.66;;;-148.63;40.60
61528;BME280;47395;42.032;-8.634;2023-11-19T09:52:58;75829.59;;;-148.63;39.46
61528;BME280;47395;42.032;-8.634;2023-11-19T09:54:59;75779.59;;;-148.63;39.21
61528;BME280;47395;42.032;-8.634;2023-11-19T09:57:01;75749.56;;;-148.63;38.63
61528;BME280;47395;42.032;-8.634;2023-11-19T09:59:05;75715.56;;;-148.63;38.20
61528;BME280;47395;42.032;-8.634;2023-11-19T10:01:06;75681.56;;;-148.63;38.13
61528;BME280;47395;42.032;-8.634;2023-11-19T10:03:09;75699.56;;;-148.63;37.95
61528;BME280;47395;42.032;-8.634;2023-11-19T10:05:11;75661.53;;;-148.63;37.55
61528;BME280;47395;42.032;-8.634;2023-11-19T10:07:15;75589.53;;;-148.63;37.25
61528;BME280;47395;42.032;-8.634;2023-11-19T10:09:16;75567.50;;;-148.63;36.42
61528;BME280;47395;42.032;-8.634;2023-11-19T10:11:17;75555.50;;;-148.63;36.50
61528;BME280;47395;42.032;-8.634;2023-11-19T10:13:18;75473.47;;;-148.63;36.04
61528;BME280;47395;42.032;-8.634;2023-11-19T10:15:23;75341.44;;;-148.63;34.86
61528;BME280;47395;42.032;-8.634;2023-11-19T10:17:28;75273.44;;;-148.63;34.39
61528;BME280;47395;42.032;-8.634;2023-11-19T10:19:31;75093.41;;;-148.63;32.65
61528;BME280;47395;42.032;-8.634;2023-11-19T10:21:35;74897.38;;;-148.63;31.19
61528;BME280;47395;42.032;-8.634;2023-11-19T10:24:04;74749.34;;;-148.63;29.56
61528;BME280;47395;42.032;-8.634;2023-11-19T10:26:06;74821.34;;;-148.63;30.22
61528;BME280;47395;42.032;-8.634;2023-11-19T10:28:07;74715.34;;;-148.63;29.55